Paul — V2GQ7 — position and weather

sailwx.info

Track history (hours):
 
Tides and Currents Weather Stations Pressure Air Temp Water Temp Dewpoint Dewpoint Depression Visibility Wind Speed Wind Dir Waves Ship Positions

Paul

Last reported at 2018-Apr-21 11:30 UTC. Time now 2018-Apr-22 03:05 UTC.
Position N 35°58' W 005°34'.

Length 83 m; draft 6.4 m.

Type: Cargo ship. MMSI: 304052000.

Date/timePositionNaut miles runAvg speedWind from/ knotsBaromVisibWave heightAir tempDewpointWater temp
2018-Apr-21 11:30N 35°58' W 005°34'4 7.9
2018-Apr-21 11:00N 35°60' W 005°29'4 8.2
2018-Apr-21 10:30N 36°01' W 005°24'4 8.0
2018-Apr-21 10:00N 36°02' W 005°20'217 9.1
2018-Apr-20 10:15N 37°13' W 001°04'410.5
2018-Apr-20 09:53N 37°16' W 001°00'610.5
2018-Apr-20 09:21N 37°19' W 000°55'410.3
2018-Apr-20 08:59N 37°22' W 000°51'610.1
2018-Apr-20 08:26N 37°26' W 000°46'4 9.8
2018-Apr-20 08:00N 37°28' W 000°42'5 9.6
2018-Apr-20 07:30N 37°31' W 000°38'5 9.9
2018-Apr-20 06:59N 37°35' W 000°33'510.0
2018-Apr-20 06:30N 37°39' W 000°30'510.0
2018-Apr-20 06:00N 37°43' W 000°26'109 9.0
2018-Apr-19 17:58N 39°31' W 000°09'9 0.6
2018-Apr-19 03:26N 39°39' W 000°13'0 0.0
2018-Apr-19 02:56N 39°39' W 000°13'0 0.0
2018-Apr-19 02:08N 39°39' W 000°13'0 0.0
2018-Apr-19 01:56N 39°39' W 000°13'0 0.0
2018-Apr-19 01:20N 39°39' W 000°13'0 0.0
2018-Apr-18 18:38N 39°39' W 000°13'0 0.1
2018-Apr-18 18:29N 39°39' W 000°13'0 0.0
2018-Apr-18 16:32N 39°39' W 000°13'0 0.1
2018-Apr-18 16:26N 39°39' W 000°13'0 0.0
2018-Apr-18 15:56N 39°39' W 000°13'4 0.3
2018-Apr-18 03:54N 39°36' W 000°12'4 9.5
2018-Apr-18 03:30N 39°32' W 000°09'108 7.7
2018-Apr-17 13:27N 37°45' W 000°21'4 9.2
2018-Apr-17 13:00N 37°42' W 000°23'510.2
2018-Apr-17 12:30N 37°38' W 000°27'510.2
2018-Apr-17 12:00N 37°33' W 000°31'510.4
2018-Apr-17 11:30N 37°30' W 000°36'510.4
2018-Apr-17 11:00N 37°26' W 000°41'23710.0
2018-Apr-16 11:21N 35°58' W 005°15'412.8
2018-Apr-16 11:00N 35°58' W 005°20'265 9.2
2018-Apr-15 06:17N 38°20' W 010°00'310.6
2018-Apr-15 05:58N 38°24' W 010°01'510.7
2018-Apr-15 05:30N 38°28' W 010°03'611.0
2018-Apr-15 04:57N 38°34' W 010°04'510.9
2018-Apr-15 04:29N 38°39' W 010°06'510.7
2018-Apr-15 04:00N 38°44' W 010°06'510.3
2018-Apr-15 03:30N 38°50' W 010°06'510.2
2018-Apr-15 02:59N 38°55' W 010°06'5 9.9
2018-Apr-15 02:29N 38°60' W 010°06'4 9.4
2018-Apr-15 02:00N 39°04' W 010°06'5 9.2
2018-Apr-15 01:30N 39°09' W 010°06'5 9.2
2018-Apr-15 00:59N 39°14' W 010°06'  
2018-Apr-12 14:53N 48°25' W 006°10'29 9.5
2018-Apr-12 11:53N 48°50' W 005°50'10610.3
2018-Apr-12 01:35N 49°48' W 003°34'210.6
2018-Apr-12 01:21N 49°50' W 003°31'410.8
2018-Apr-12 00:59N 49°52' W 003°26'510.4
2018-Apr-12 00:30N 49°52' W 003°18'511.0
2018-Apr-12 00:00N 49°55' W 003°11'611.6
2018-Apr-11 23:30N 49°59' W 003°04'4711.2
2018-Apr-11 19:18N 50°12' W 001°53'3 9.5
2018-Apr-11 19:00N 50°13' W 001°49'5 9.1
2018-Apr-11 18:30N 50°14' W 001°42'4 8.8
2018-Apr-11 18:00N 50°15' W 001°35'4 8.6
2018-Apr-11 17:30N 50°17' W 001°29'4 8.5
2018-Apr-11 17:00N 50°18' W 001°22'10 8.7
2018-Apr-11 15:53N 50°20' W 001°08'4 9.4
2018-Apr-11 15:30N 50°21' W 001°02'5 9.8
2018-Apr-11 15:00N 50°23' W 000°55'510.5
2018-Apr-11 14:30N 50°24' W 000°47'610.9
2018-Apr-11 14:00N 50°26' W 000°39'611.2
2018-Apr-11 13:30N 50°27' W 000°30'611.5
2018-Apr-11 13:00N 50°29' W 000°22'611.6
2018-Apr-11 12:30N 50°30' W 000°13'611.5
2018-Apr-11 12:00N 50°32' W 000°04'611.5
2018-Apr-11 11:30N 50°33' E 000°05'  
Track history (hours):
 
Tides and Currents Weather Stations Pressure Air Temp Water Temp Dewpoint Dewpoint Depression Visibility Wind Speed Wind Dir Waves Ship Positions

Paul

Last reported at 2018-Apr-21 11:30 UTC. Time now 2018-Apr-22 03:05 UTC.
Position N 35°58' W 005°34'.

Length 83 m; draft 6.4 m.

Type: Cargo ship. MMSI: 304052000.

Date/timePositionNaut miles runAvg speedWind from/ knotsBaromVisibWave heightAir tempDewpointWater temp
2018-Apr-21 11:30N 35°58' W 005°34'4 7.9
2018-Apr-21 11:00N 35°60' W 005°29'4 8.2
2018-Apr-21 10:30N 36°01' W 005°24'4 8.0
2018-Apr-21 10:00N 36°02' W 005°20'217 9.1
2018-Apr-20 10:15N 37°13' W 001°04'410.5
2018-Apr-20 09:53N 37°16' W 001°00'610.5
2018-Apr-20 09:21N 37°19' W 000°55'410.3
2018-Apr-20 08:59N 37°22' W 000°51'610.1
2018-Apr-20 08:26N 37°26' W 000°46'4 9.8
2018-Apr-20 08:00N 37°28' W 000°42'5 9.6
2018-Apr-20 07:30N 37°31' W 000°38'5 9.9
2018-Apr-20 06:59N 37°35' W 000°33'510.0
2018-Apr-20 06:30N 37°39' W 000°30'510.0
2018-Apr-20 06:00N 37°43' W 000°26'109 9.0
2018-Apr-19 17:58N 39°31' W 000°09'9 0.6
2018-Apr-19 03:26N 39°39' W 000°13'0 0.0
2018-Apr-19 02:56N 39°39' W 000°13'0 0.0
2018-Apr-19 02:08N 39°39' W 000°13'0 0.0
2018-Apr-19 01:56N 39°39' W 000°13'0 0.0
2018-Apr-19 01:20N 39°39' W 000°13'0 0.0
2018-Apr-18 18:38N 39°39' W 000°13'0 0.1
2018-Apr-18 18:29N 39°39' W 000°13'0 0.0
2018-Apr-18 16:32N 39°39' W 000°13'0 0.1
2018-Apr-18 16:26N 39°39' W 000°13'0 0.0
2018-Apr-18 15:56N 39°39' W 000°13'4 0.3
2018-Apr-18 03:54N 39°36' W 000°12'4 9.5
2018-Apr-18 03:30N 39°32' W 000°09'108 7.7
2018-Apr-17 13:27N 37°45' W 000°21'4 9.2
2018-Apr-17 13:00N 37°42' W 000°23'510.2
2018-Apr-17 12:30N 37°38' W 000°27'510.2
2018-Apr-17 12:00N 37°33' W 000°31'510.4
2018-Apr-17 11:30N 37°30' W 000°36'510.4
2018-Apr-17 11:00N 37°26' W 000°41'23710.0
2018-Apr-16 11:21N 35°58' W 005°15'412.8
2018-Apr-16 11:00N 35°58' W 005°20'265 9.2
2018-Apr-15 06:17N 38°20' W 010°00'310.6
2018-Apr-15 05:58N 38°24' W 010°01'510.7
2018-Apr-15 05:30N 38°28' W 010°03'611.0
2018-Apr-15 04:57N 38°34' W 010°04'510.9
2018-Apr-15 04:29N 38°39' W 010°06'510.7
2018-Apr-15 04:00N 38°44' W 010°06'510.3
2018-Apr-15 03:30N 38°50' W 010°06'510.2
2018-Apr-15 02:59N 38°55' W 010°06'5 9.9
2018-Apr-15 02:29N 38°60' W 010°06'4 9.4
2018-Apr-15 02:00N 39°04' W 010°06'5 9.2
2018-Apr-15 01:30N 39°09' W 010°06'5 9.2
2018-Apr-15 00:59N 39°14' W 010°06'  
2018-Apr-12 14:53N 48°25' W 006°10'29 9.5
2018-Apr-12 11:53N 48°50' W 005°50'10610.3
2018-Apr-12 01:35N 49°48' W 003°34'210.6
2018-Apr-12 01:21N 49°50' W 003°31'410.8
2018-Apr-12 00:59N 49°52' W 003°26'510.4
2018-Apr-12 00:30N 49°52' W 003°18'511.0
2018-Apr-12 00:00N 49°55' W 003°11'611.6
2018-Apr-11 23:30N 49°59' W 003°04'4711.2
2018-Apr-11 19:18N 50°12' W 001°53'3 9.5
2018-Apr-11 19:00N 50°13' W 001°49'5 9.1
2018-Apr-11 18:30N 50°14' W 001°42'4 8.8
2018-Apr-11 18:00N 50°15' W 001°35'4 8.6
2018-Apr-11 17:30N 50°17' W 001°29'4 8.5
2018-Apr-11 17:00N 50°18' W 001°22'10 8.7
2018-Apr-11 15:53N 50°20' W 001°08'4 9.4
2018-Apr-11 15:30N 50°21' W 001°02'5 9.8
2018-Apr-11 15:00N 50°23' W 000°55'510.5
2018-Apr-11 14:30N 50°24' W 000°47'610.9
2018-Apr-11 14:00N 50°26' W 000°39'611.2
2018-Apr-11 13:30N 50°27' W 000°30'611.5
2018-Apr-11 13:00N 50°29' W 000°22'611.6
2018-Apr-11 12:30N 50°30' W 000°13'611.5
2018-Apr-11 12:00N 50°32' W 000°04'611.5
2018-Apr-11 11:30N 50°33' E 000°05'  

Dump ship's entire track history